sensor_id;sensor_type;location;lat;lon;timestamp;P1;durP1;ratioP1;P2;durP2;ratioP2
17363;SDS011;8799;43.594;13.526;2022-11-15T00:01:09;4.40;;;2.77;;
17363;SDS011;8799;43.594;13.526;2022-11-15T00:03:44;5.17;;;3.07;;
17363;SDS011;8799;43.594;13.526;2022-11-15T00:06:11;3.83;;;2.60;;
17363;SDS011;8799;43.594;13.526;2022-11-15T00:08:39;4.40;;;2.47;;
17363;SDS011;8799;43.594;13.526;2022-11-15T00:11:08;5.33;;;2.63;;
17363;SDS011;8799;43.594;13.526;2022-11-15T00:13:37;3.70;;;2.70;;
17363;SDS011;8799;43.594;13.526;2022-11-15T00:16:05;4.57;;;2.90;;
17363;SDS011;8799;43.594;13.526;2022-11-15T00:18:33;5.00;;;2.63;;
17363;SDS011;8799;43.594;13.526;2022-11-15T00:21:07;3.77;;;2.63;;
17363;SDS011;8799;43.594;13.526;2022-11-15T00:23:36;4.87;;;2.83;;
17363;SDS011;8799;43.594;13.526;2022-11-15T00:26:05;6.00;;;2.80;;
17363;SDS011;8799;43.594;13.526;2022-11-15T00:28:33;5.07;;;2.67;;
17363;SDS011;8799;43.594;13.526;2022-11-15T00:31:00;3.90;;;2.70;;
17363;SDS011;8799;43.594;13.526;2022-11-15T00:33:29;3.87;;;2.60;;
17363;SDS011;8799;43.594;13.526;2022-11-15T00:36:00;4.43;;;2.57;;
17363;SDS011;8799;43.594;13.526;2022-11-15T00:38:34;5.83;;;2.77;;
17363;SDS011;8799;43.594;13.526;2022-11-15T00:41:02;4.53;;;2.67;;
17363;SDS011;8799;43.594;13.526;2022-11-15T00:43:31;5.53;;;2.97;;
17363;SDS011;8799;43.594;13.526;2022-11-15T00:45:59;4.43;;;2.73;;
17363;SDS011;8799;43.594;13.526;2022-11-15T00:48:27;4.30;;;2.77;;
17363;SDS011;8799;43.594;13.526;2022-11-15T00:50:55;3.30;;;2.40;;
17363;SDS011;8799;43.594;13.526;2022-11-15T00:53:23;4.07;;;2.53;;
17363;SDS011;8799;43.594;13.526;2022-11-15T00:55:52;3.27;;;2.33;;
17363;SDS011;8799;43.594;13.526;2022-11-15T00:58:20;5.60;;;3.10;;
17363;SDS011;8799;43.594;13.526;2022-11-15T01:00:48;5.73;;;2.90;;
17363;SDS011;8799;43.594;13.526;2022-11-15T01:03:16;3.60;;;2.47;;
17363;SDS011;8799;43.594;13.526;2022-11-15T01:05:44;4.90;;;2.70;;
17363;SDS011;8799;43.594;13.526;2022-11-15T01:08:12;4.33;;;2.33;;
17363;SDS011;8799;43.594;13.526;2022-11-15T01:10:41;3.97;;;2.63;;
17363;SDS011;8799;43.594;13.526;2022-11-15T01:13:10;5.20;;;3.10;;
17363;SDS011;8799;43.594;13.526;2022-11-15T01:15:40;3.60;;;2.40;;
17363;SDS011;8799;43.594;13.526;2022-11-15T01:18:08;4.37;;;2.77;;
17363;SDS011;8799;43.594;13.526;2022-11-15T01:20:38;5.97;;;2.63;;
17363;SDS011;8799;43.594;13.526;2022-11-15T01:23:07;5.17;;;2.23;;
17363;SDS011;8799;43.594;13.526;2022-11-15T01:25:35;4.47;;;2.63;;
17363;SDS011;8799;43.594;13.526;2022-11-15T01:28:04;4.20;;;2.53;;
17363;SDS011;8799;43.594;13.526;2022-11-15T01:30:35;3.80;;;2.53;;
17363;SDS011;8799;43.594;13.526;2022-11-15T01:33:03;4.47;;;2.60;;
17363;SDS011;8799;43.594;13.526;2022-11-15T01:35:31;4.23;;;2.50;;
17363;SDS011;8799;43.594;13.526;2022-11-15T01:37:59;4.73;;;2.53;;
17363;SDS011;8799;43.594;13.526;2022-11-15T01:40:26;3.83;;;2.37;;
17363;SDS011;8799;43.594;13.526;2022-11-15T01:42:54;3.37;;;2.23;;
17363;SDS011;8799;43.594;13.526;2022-11-15T01:45:22;3.67;;;2.30;;
17363;SDS011;8799;43.594;13.526;2022-11-15T01:47:52;3.10;;;2.17;;
17363;SDS011;8799;43.594;13.526;2022-11-15T01:50:22;3.83;;;2.53;;
17363;SDS011;8799;43.594;13.526;2022-11-15T01:52:54;3.40;;;2.50;;
17363;SDS011;8799;43.594;13.526;2022-11-15T01:55:23;6.07;;;2.57;;
17363;SDS011;8799;43.594;13.526;2022-11-15T01:57:54;3.23;;;2.20;;
17363;SDS011;8799;43.594;13.526;2022-11-15T02:00:26;4.10;;;2.57;;
17363;SDS011;8799;43.594;13.526;2022-11-15T02:02:57;5.47;;;2.87;;
17363;SDS011;8799;43.594;13.526;2022-11-15T02:05:25;4.20;;;2.90;;
17363;SDS011;8799;43.594;13.526;2022-11-15T02:07:53;4.10;;;2.57;;
17363;SDS011;8799;43.594;13.526;2022-11-15T02:10:22;4.57;;;2.60;;
17363;SDS011;8799;43.594;13.526;2022-11-15T02:12:51;3.93;;;2.53;;
17363;SDS011;8799;43.594;13.526;2022-11-15T02:15:21;3.63;;;2.50;;
17363;SDS011;8799;43.594;13.526;2022-11-15T02:18:02;3.07;;;2.27;;
17363;SDS011;8799;43.594;13.526;2022-11-15T02:20:45;3.63;;;2.40;;
17363;SDS011;8799;43.594;13.526;2022-11-15T02:23:36;4.27;;;2.43;;
17363;SDS011;8799;43.594;13.526;2022-11-15T02:29:43;3.13;;;2.27;;
17363;SDS011;8799;43.594;13.526;2022-11-15T02:32:24;4.77;;;2.60;;
17363;SDS011;8799;43.594;13.526;2022-11-15T02:35:01;3.90;;;2.70;;
17363;SDS011;8799;43.594;13.526;2022-11-15T02:37:37;4.50;;;2.67;;
17363;SDS011;8799;43.594;13.526;2022-11-15T02:40:12;4.47;;;2.60;;
17363;SDS011;8799;43.594;13.526;2022-11-15T02:42:48;5.97;;;2.67;;
17363;SDS011;8799;43.594;13.526;2022-11-15T02:45:46;4.73;;;2.57;;
17363;SDS011;8799;43.594;13.526;2022-11-15T02:48:20;4.03;;;2.70;;
17363;SDS011;8799;43.594;13.526;2022-11-15T02:50:49;4.83;;;2.80;;
17363;SDS011;8799;43.594;13.526;2022-11-15T02:53:20;5.20;;;2.80;;
17363;SDS011;8799;43.594;13.526;2022-11-15T02:55:50;4.03;;;2.40;;
17363;SDS011;8799;43.594;13.526;2022-11-15T03:01:26;4.43;;;2.83;;
17363;SDS011;8799;43.594;13.526;2022-11-15T03:04:07;4.47;;;2.83;;
17363;SDS011;8799;43.594;13.526;2022-11-15T03:06:46;3.73;;;2.70;;
17363;SDS011;8799;43.594;13.526;2022-11-15T03:09:29;4.17;;;2.30;;
17363;SDS011;8799;43.594;13.526;2022-11-15T03:12:03;4.23;;;2.67;;
17363;SDS011;8799;43.594;13.526;2022-11-15T03:14:36;3.63;;;2.37;;
17363;SDS011;8799;43.594;13.526;2022-11-15T03:17:12;5.27;;;2.70;;
17363;SDS011;8799;43.594;13.526;2022-11-15T03:19:47;4.60;;;2.70;;
17363;SDS011;8799;43.594;13.526;2022-11-15T03:22:17;4.20;;;2.67;;
17363;SDS011;8799;43.594;13.526;2022-11-15T03:24:50;4.30;;;2.70;;
17363;SDS011;8799;43.594;13.526;2022-11-15T03:27:21;4.10;;;2.40;;
17363;SDS011;8799;43.594;13.526;2022-11-15T03:29:54;4.87;;;2.80;;
17363;SDS011;8799;43.594;13.526;2022-11-15T03:32:26;4.37;;;2.53;;
17363;SDS011;8799;43.594;13.526;2022-11-15T03:34:58;8.73;;;3.00;;
17363;SDS011;8799;43.594;13.526;2022-11-15T03:37:30;4.57;;;2.83;;
17363;SDS011;8799;43.594;13.526;2022-11-15T03:40:03;5.10;;;2.70;;
17363;SDS011;8799;43.594;13.526;2022-11-15T03:42:35;5.00;;;2.97;;
17363;SDS011;8799;43.594;13.526;2022-11-15T03:45:12;5.40;;;2.90;;
17363;SDS011;8799;43.594;13.526;2022-11-15T03:47:42;5.20;;;2.73;;
17363;SDS011;8799;43.594;13.526;2022-11-15T03:50:15;3.67;;;2.50;;
17363;SDS011;8799;43.594;13.526;2022-11-15T03:52:45;4.47;;;2.70;;
17363;SDS011;8799;43.594;13.526;2022-11-15T03:55:16;6.40;;;2.90;;
17363;SDS011;8799;43.594;13.526;2022-11-15T03:57:46;3.87;;;2.80;;
17363;SDS011;8799;43.594;13.526;2022-11-15T04:00:16;4.83;;;2.93;;
17363;SDS011;8799;43.594;13.526;2022-11-15T04:02:44;4.43;;;2.80;;
17363;SDS011;8799;43.594;13.526;2022-11-15T04:05:13;4.57;;;2.60;;
17363;SDS011;8799;43.594;13.526;2022-11-15T04:07:42;4.47;;;3.00;;
17363;SDS011;8799;43.594;13.526;2022-11-15T04:10:10;5.37;;;2.83;;
17363;SDS011;8799;43.594;13.526;2022-11-15T04:12:39;6.60;;;2.70;;
17363;SDS011;8799;43.594;13.526;2022-11-15T04:15:10;5.27;;;2.87;;
17363;SDS011;8799;43.594;13.526;2022-11-15T04:17:39;4.50;;;2.87;;
17363;SDS011;8799;43.594;13.526;2022-11-15T04:20:10;5.70;;;2.83;;
17363;SDS011;8799;43.594;13.526;2022-11-15T04:22:58;5.43;;;3.00;;
17363;SDS011;8799;43.594;13.526;2022-11-15T04:25:43;4.97;;;2.83;;
17363;SDS011;8799;43.594;13.526;2022-11-15T04:28:12;4.57;;;2.73;;
17363;SDS011;8799;43.594;13.526;2022-11-15T04:30:40;5.13;;;2.77;;
17363;SDS011;8799;43.594;13.526;2022-11-15T04:33:08;8.50;;;2.93;;
17363;SDS011;8799;43.594;13.526;2022-11-15T04:35:36;4.60;;;2.77;;
17363;SDS011;8799;43.594;13.526;2022-11-15T04:38:06;5.83;;;2.90;;
17363;SDS011;8799;43.594;13.526;2022-11-15T04:40:33;6.67;;;3.03;;
17363;SDS011;8799;43.594;13.526;2022-11-15T04:43:01;4.60;;;2.87;;
17363;SDS011;8799;43.594;13.526;2022-11-15T04:45:29;4.60;;;2.73;;
17363;SDS011;8799;43.594;13.526;2022-11-15T04:47:57;4.67;;;2.93;;
17363;SDS011;8799;43.594;13.526;2022-11-15T04:50:25;5.00;;;3.10;;
17363;SDS011;8799;43.594;13.526;2022-11-15T04:52:53;5.87;;;2.97;;
17363;SDS011;8799;43.594;13.526;2022-11-15T04:55:22;4.00;;;2.77;;
17363;SDS011;8799;43.594;13.526;2022-11-15T04:57:57;5.63;;;2.80;;
17363;SDS011;8799;43.594;13.526;2022-11-15T05:00:26;5.67;;;3.07;;
17363;SDS011;8799;43.594;13.526;2022-11-15T05:02:55;5.03;;;2.90;;
17363;SDS011;8799;43.594;13.526;2022-11-15T05:05:40;8.33;;;3.00;;
17363;SDS011;8799;43.594;13.526;2022-11-15T05:08:08;6.00;;;2.87;;
17363;SDS011;8799;43.594;13.526;2022-11-15T05:10:37;6.47;;;3.27;;
17363;SDS011;8799;43.594;13.526;2022-11-15T05:13:05;3.90;;;2.80;;
17363;SDS011;8799;43.594;13.526;2022-11-15T05:15:33;5.73;;;3.30;;
17363;SDS011;8799;43.594;13.526;2022-11-15T05:18:01;6.00;;;3.07;;
17363;SDS011;8799;43.594;13.526;2022-11-15T05:20:29;4.80;;;2.90;;
17363;SDS011;8799;43.594;13.526;2022-11-15T05:22:57;4.60;;;3.00;;
17363;SDS011;8799;43.594;13.526;2022-11-15T05:25:25;5.47;;;3.30;;
17363;SDS011;8799;43.594;13.526;2022-11-15T05:27:54;6.47;;;3.47;;
17363;SDS011;8799;43.594;13.526;2022-11-15T05:30:23;4.53;;;2.93;;
17363;SDS011;8799;43.594;13.526;2022-11-15T05:32:52;7.83;;;3.13;;
17363;SDS011;8799;43.594;13.526;2022-11-15T05:35:22;5.60;;;3.40;;
17363;SDS011;8799;43.594;13.526;2022-11-15T05:37:56;4.97;;;3.13;;
17363;SDS011;8799;43.594;13.526;2022-11-15T05:40:24;5.20;;;3.30;;
17363;SDS011;8799;43.594;13.526;2022-11-15T05:42:53;6.40;;;3.33;;
17363;SDS011;8799;43.594;13.526;2022-11-15T05:45:22;5.87;;;3.33;;
17363;SDS011;8799;43.594;13.526;2022-11-15T05:47:50;4.90;;;3.23;;
17363;SDS011;8799;43.594;13.526;2022-11-15T05:50:18;5.37;;;3.13;;
17363;SDS011;8799;43.594;13.526;2022-11-15T05:52:46;5.77;;;3.43;;
17363;SDS011;8799;43.594;13.526;2022-11-15T05:55:14;5.10;;;2.90;;
17363;SDS011;8799;43.594;13.526;2022-11-15T05:57:43;5.07;;;3.30;;
17363;SDS011;8799;43.594;13.526;2022-11-15T06:00:14;5.67;;;3.50;;
17363;SDS011;8799;43.594;13.526;2022-11-15T06:02:42;5.70;;;3.30;;
17363;SDS011;8799;43.594;13.526;2022-11-15T06:05:10;6.00;;;3.57;;
17363;SDS011;8799;43.594;13.526;2022-11-15T06:07:38;5.90;;;3.20;;
17363;SDS011;8799;43.594;13.526;2022-11-15T06:10:06;5.97;;;3.23;;
17363;SDS011;8799;43.594;13.526;2022-11-15T06:12:34;7.00;;;3.27;;
17363;SDS011;8799;43.594;13.526;2022-11-15T06:15:03;5.67;;;3.77;;
17363;SDS011;8799;43.594;13.526;2022-11-15T06:17:32;4.77;;;3.10;;
17363;SDS011;8799;43.594;13.526;2022-11-15T06:20:01;7.37;;;4.00;;
17363;SDS011;8799;43.594;13.526;2022-11-15T06:22:29;7.10;;;3.20;;
17363;SDS011;8799;43.594;13.526;2022-11-15T06:24:56;5.57;;;3.67;;
17363;SDS011;8799;43.594;13.526;2022-11-15T06:27:24;6.67;;;4.17;;
17363;SDS011;8799;43.594;13.526;2022-11-15T06:29:52;8.10;;;4.50;;
17363;SDS011;8799;43.594;13.526;2022-11-15T06:32:20;7.53;;;3.83;;
17363;SDS011;8799;43.594;13.526;2022-11-15T06:34:49;6.93;;;4.00;;
17363;SDS011;8799;43.594;13.526;2022-11-15T06:37:16;7.33;;;4.43;;
17363;SDS011;8799;43.594;13.526;2022-11-15T06:39:44;6.60;;;4.27;;
17363;SDS011;8799;43.594;13.526;2022-11-15T06:42:12;9.83;;;4.53;;
17363;SDS011;8799;43.594;13.526;2022-11-15T06:44:40;8.87;;;4.23;;
17363;SDS011;8799;43.594;13.526;2022-11-15T06:47:07;9.63;;;4.87;;
17363;SDS011;8799;43.594;13.526;2022-11-15T06:49:35;9.23;;;5.13;;
17363;SDS011;8799;43.594;13.526;2022-11-15T06:52:05;7.63;;;4.60;;
17363;SDS011;8799;43.594;13.526;2022-11-15T06:54:34;10.07;;;5.50;;
17363;SDS011;8799;43.594;13.526;2022-11-15T06:57:03;8.20;;;4.87;;
17363;SDS011;8799;43.594;13.526;2022-11-15T06:59:32;9.90;;;5.27;;
17363;SDS011;8799;43.594;13.526;2022-11-15T07:02:00;10.57;;;5.23;;
17363;SDS011;8799;43.594;13.526;2022-11-15T07:04:28;11.27;;;5.23;;
17363;SDS011;8799;43.594;13.526;2022-11-15T07:06:56;10.87;;;5.10;;
17363;SDS011;8799;43.594;13.526;2022-11-15T07:09:25;14.13;;;5.93;;
17363;SDS011;8799;43.594;13.526;2022-11-15T07:11:53;10.13;;;5.10;;
17363;SDS011;8799;43.594;13.526;2022-11-15T07:14:21;10.90;;;6.00;;
17363;SDS011;8799;43.594;13.526;2022-11-15T07:16:48;10.23;;;5.67;;
17363;SDS011;8799;43.594;13.526;2022-11-15T07:19:18;7.53;;;4.37;;
17363;SDS011;8799;43.594;13.526;2022-11-15T07:21:46;8.20;;;4.80;;
17363;SDS011;8799;43.594;13.526;2022-11-15T07:24:14;8.33;;;5.13;;
17363;SDS011;8799;43.594;13.526;2022-11-15T07:26:44;8.67;;;4.53;;
17363;SDS011;8799;43.594;13.526;2022-11-15T07:29:12;11.93;;;5.20;;
17363;SDS011;8799;43.594;13.526;2022-11-15T07:31:39;7.83;;;4.57;;
17363;SDS011;8799;43.594;13.526;2022-11-15T07:34:07;8.57;;;4.50;;
17363;SDS011;8799;43.594;13.526;2022-11-15T07:36:35;8.27;;;4.27;;
17363;SDS011;8799;43.594;13.526;2022-11-15T07:39:03;7.97;;;4.43;;
17363;SDS011;8799;43.594;13.526;2022-11-15T07:41:30;9.53;;;5.50;;
17363;SDS011;8799;43.594;13.526;2022-11-15T07:44:00;10.67;;;4.87;;
17363;SDS011;8799;43.594;13.526;2022-11-15T07:46:32;9.67;;;4.43;;
17363;SDS011;8799;43.594;13.526;2022-11-15T07:49:00;12.07;;;4.60;;
17363;SDS011;8799;43.594;13.526;2022-11-15T07:51:28;8.47;;;4.50;;
17363;SDS011;8799;43.594;13.526;2022-11-15T07:53:57;8.27;;;4.63;;
17363;SDS011;8799;43.594;13.526;2022-11-15T07:56:25;6.77;;;4.30;;
17363;SDS011;8799;43.594;13.526;2022-11-15T07:58:53;9.23;;;4.57;;
17363;SDS011;8799;43.594;13.526;2022-11-15T08:01:22;7.43;;;4.30;;
17363;SDS011;8799;43.594;13.526;2022-11-15T08:03:50;7.80;;;4.80;;
17363;SDS011;8799;43.594;13.526;2022-11-15T08:06:19;6.67;;;4.20;;
17363;SDS011;8799;43.594;13.526;2022-11-15T08:08:47;11.17;;;4.57;;
17363;SDS011;8799;43.594;13.526;2022-11-15T08:11:15;9.03;;;4.57;;
17363;SDS011;8799;43.594;13.526;2022-11-15T08:13:44;7.77;;;4.00;;
17363;SDS011;8799;43.594;13.526;2022-11-15T08:16:13;6.60;;;4.20;;
17363;SDS011;8799;43.594;13.526;2022-11-15T08:18:42;7.60;;;4.50;;
17363;SDS011;8799;43.594;13.526;2022-11-15T08:21:10;6.57;;;3.90;;
17363;SDS011;8799;43.594;13.526;2022-11-15T08:23:41;7.40;;;4.30;;
17363;SDS011;8799;43.594;13.526;2022-11-15T08:26:09;8.50;;;4.50;;
17363;SDS011;8799;43.594;13.526;2022-11-15T08:28:37;7.97;;;4.43;;
17363;SDS011;8799;43.594;13.526;2022-11-15T08:31:11;6.93;;;4.37;;
17363;SDS011;8799;43.594;13.526;2022-11-15T08:33:43;9.17;;;4.03;;
17363;SDS011;8799;43.594;13.526;2022-11-15T08:36:12;8.53;;;4.43;;
17363;SDS011;8799;43.594;13.526;2022-11-15T08:38:41;7.93;;;4.10;;
17363;SDS011;8799;43.594;13.526;2022-11-15T08:41:10;7.80;;;4.70;;
17363;SDS011;8799;43.594;13.526;2022-11-15T08:43:40;7.37;;;4.33;;
17363;SDS011;8799;43.594;13.526;2022-11-15T08:46:08;6.73;;;4.00;;
17363;SDS011;8799;43.594;13.526;2022-11-15T08:48:39;8.53;;;3.90;;
17363;SDS011;8799;43.594;13.526;2022-11-15T08:51:08;7.27;;;4.30;;
17363;SDS011;8799;43.594;13.526;2022-11-15T08:53:36;6.97;;;4.03;;
17363;SDS011;8799;43.594;13.526;2022-11-15T08:56:06;8.07;;;4.40;;
17363;SDS011;8799;43.594;13.526;2022-11-15T08:58:35;6.40;;;3.87;;
17363;SDS011;8799;43.594;13.526;2022-11-15T09:01:04;6.27;;;3.53;;
17363;SDS011;8799;43.594;13.526;2022-11-15T09:03:32;6.40;;;3.90;;
17363;SDS011;8799;43.594;13.526;2022-11-15T09:06:00;5.30;;;3.80;;
17363;SDS011;8799;43.594;13.526;2022-11-15T09:08:30;6.10;;;3.63;;
17363;SDS011;8799;43.594;13.526;2022-11-15T09:10:58;8.37;;;4.37;;
17363;SDS011;8799;43.594;13.526;2022-11-15T09:13:30;5.37;;;3.50;;
17363;SDS011;8799;43.594;13.526;2022-11-15T09:15:58;6.63;;;4.27;;
17363;SDS011;8799;43.594;13.526;2022-11-15T09:18:26;7.40;;;3.70;;
17363;SDS011;8799;43.594;13.526;2022-11-15T09:20:55;6.57;;;4.17;;
17363;SDS011;8799;43.594;13.526;2022-11-15T09:23:24;6.67;;;4.27;;
17363;SDS011;8799;43.594;13.526;2022-11-15T09:25:57;7.67;;;3.97;;
17363;SDS011;8799;43.594;13.526;2022-11-15T09:28:26;6.83;;;4.10;;
17363;SDS011;8799;43.594;13.526;2022-11-15T09:30:55;7.00;;;3.87;;
17363;SDS011;8799;43.594;13.526;2022-11-15T09:33:25;6.90;;;3.87;;
17363;SDS011;8799;43.594;13.526;2022-11-15T09:35:54;8.27;;;4.30;;
17363;SDS011;8799;43.594;13.526;2022-11-15T09:38:28;8.07;;;4.17;;
17363;SDS011;8799;43.594;13.526;2022-11-15T09:41:05;5.97;;;3.97;;
17363;SDS011;8799;43.594;13.526;2022-11-15T09:43:54;6.07;;;3.70;;
17363;SDS011;8799;43.594;13.526;2022-11-15T09:46:37;5.20;;;3.57;;
17363;SDS011;8799;43.594;13.526;2022-11-15T09:49:13;6.33;;;3.90;;
17363;SDS011;8799;43.594;13.526;2022-11-15T09:51:43;6.67;;;3.90;;
17363;SDS011;8799;43.594;13.526;2022-11-15T09:54:18;7.13;;;4.23;;
17363;SDS011;8799;43.594;13.526;2022-11-15T09:56:54;7.63;;;4.13;;
17363;SDS011;8799;43.594;13.526;2022-11-15T09:59:29;5.70;;;3.47;;
17363;SDS011;8799;43.594;13.526;2022-11-15T10:02:13;6.47;;;3.80;;
17363;SDS011;8799;43.594;13.526;2022-11-15T10:04:49;6.53;;;3.33;;
17363;SDS011;8799;43.594;13.526;2022-11-15T10:07:20;7.53;;;4.40;;
17363;SDS011;8799;43.594;13.526;2022-11-15T10:09:55;7.93;;;4.22;;
17363;SDS011;8799;43.594;13.526;2022-11-15T10:12:30;8.17;;;3.93;;
17363;SDS011;8799;43.594;13.526;2022-11-15T10:15:00;6.17;;;3.83;;
17363;SDS011;8799;43.594;13.526;2022-11-15T10:17:34;6.47;;;4.07;;
17363;SDS011;8799;43.594;13.526;2022-11-15T10:20:17;5.87;;;3.60;;
17363;SDS011;8799;43.594;13.526;2022-11-15T10:22:48;5.40;;;3.83;;
17363;SDS011;8799;43.594;13.526;2022-11-15T10:25:20;7.00;;;4.13;;
17363;SDS011;8799;43.594;13.526;2022-11-15T10:30:40;7.83;;;4.13;;
17363;SDS011;8799;43.594;13.526;2022-11-15T10:33:13;6.97;;;4.30;;
17363;SDS011;8799;43.594;13.526;2022-11-15T10:38:52;7.00;;;3.53;;
17363;SDS011;8799;43.594;13.526;2022-11-15T10:41:22;9.07;;;4.00;;
17363;SDS011;8799;43.594;13.526;2022-11-15T10:46:50;6.27;;;3.93;;
17363;SDS011;8799;43.594;13.526;2022-11-15T10:49:53;5.47;;;3.17;;
17363;SDS011;8799;43.594;13.526;2022-11-15T10:52:23;8.57;;;3.80;;
17363;SDS011;8799;43.594;13.526;2022-11-15T10:54:52;6.00;;;3.90;;
17363;SDS011;8799;43.594;13.526;2022-11-15T10:57:23;6.63;;;3.73;;
17363;SDS011;8799;43.594;13.526;2022-11-15T10:59:56;6.40;;;3.67;;
17363;SDS011;8799;43.594;13.526;2022-11-15T11:02:28;6.43;;;3.43;;
17363;SDS011;8799;43.594;13.526;2022-11-15T11:04:59;7.17;;;3.40;;
17363;SDS011;8799;43.594;13.526;2022-11-15T11:07:28;6.93;;;3.70;;
17363;SDS011;8799;43.594;13.526;2022-11-15T11:09:58;5.53;;;3.50;;
17363;SDS011;8799;43.594;13.526;2022-11-15T11:12:29;6.93;;;3.90;;
17363;SDS011;8799;43.594;13.526;2022-11-15T11:15:00;5.60;;;3.60;;
17363;SDS011;8799;43.594;13.526;2022-11-15T11:17:39;5.90;;;3.70;;
17363;SDS011;8799;43.594;13.526;2022-11-15T11:20:18;6.47;;;3.93;;
17363;SDS011;8799;43.594;13.526;2022-11-15T11:23:05;6.33;;;3.70;;
17363;SDS011;8799;43.594;13.526;2022-11-15T11:25:51;5.60;;;3.50;;
17363;SDS011;8799;43.594;13.526;2022-11-15T11:28:33;6.00;;;4.00;;
17363;SDS011;8799;43.594;13.526;2022-11-15T11:31:23;6.73;;;3.77;;
17363;SDS011;8799;43.594;13.526;2022-11-15T11:33:59;7.23;;;3.50;;
17363;SDS011;8799;43.594;13.526;2022-11-15T11:36:39;7.80;;;3.93;;
17363;SDS011;8799;43.594;13.526;2022-11-15T11:39:16;6.57;;;3.13;;
17363;SDS011;8799;43.594;13.526;2022-11-15T11:41:56;6.43;;;3.83;;
17363;SDS011;8799;43.594;13.526;2022-11-15T11:44:33;5.63;;;3.57;;
17363;SDS011;8799;43.594;13.526;2022-11-15T11:47:09;5.53;;;3.23;;
17363;SDS011;8799;43.594;13.526;2022-11-15T11:49:41;6.07;;;3.70;;
17363;SDS011;8799;43.594;13.526;2022-11-15T11:52:13;6.37;;;3.17;;
17363;SDS011;8799;43.594;13.526;2022-11-15T11:54:50;6.50;;;3.50;;
17363;SDS011;8799;43.594;13.526;2022-11-15T11:57:28;5.30;;;2.93;;
17363;SDS011;8799;43.594;13.526;2022-11-15T12:00:04;6.20;;;3.43;;
17363;SDS011;8799;43.594;13.526;2022-11-15T12:02:42;7.57;;;3.60;;
17363;SDS011;8799;43.594;13.526;2022-11-15T12:05:16;5.87;;;3.27;;
17363;SDS011;8799;43.594;13.526;2022-11-15T12:07:49;5.70;;;3.57;;
17363;SDS011;8799;43.594;13.526;2022-11-15T12:10:22;5.57;;;3.60;;
17363;SDS011;8799;43.594;13.526;2022-11-15T12:12:54;6.63;;;3.63;;
17363;SDS011;8799;43.594;13.526;2022-11-15T12:15:26;6.73;;;3.50;;
17363;SDS011;8799;43.594;13.526;2022-11-15T12:17:59;5.20;;;3.53;;
17363;SDS011;8799;43.594;13.526;2022-11-15T12:20:28;5.67;;;3.47;;
17363;SDS011;8799;43.594;13.526;2022-11-15T12:23:01;7.17;;;3.20;;
17363;SDS011;8799;43.594;13.526;2022-11-15T12:25:35;5.67;;;3.73;;
17363;SDS011;8799;43.594;13.526;2022-11-15T12:28:18;6.20;;;3.37;;
17363;SDS011;8799;43.594;13.526;2022-11-15T12:30:53;4.63;;;3.03;;
17363;SDS011;8799;43.594;13.526;2022-11-15T12:33:32;5.97;;;3.97;;
17363;SDS011;8799;43.594;13.526;2022-11-15T12:36:05;5.23;;;3.70;;
17363;SDS011;8799;43.594;13.526;2022-11-15T12:38:51;6.17;;;3.10;;
17363;SDS011;8799;43.594;13.526;2022-11-15T12:41:22;5.30;;;3.40;;
17363;SDS011;8799;43.594;13.526;2022-11-15T12:43:51;6.40;;;3.67;;
17363;SDS011;8799;43.594;13.526;2022-11-15T12:46:21;5.53;;;3.60;;
17363;SDS011;8799;43.594;13.526;2022-11-15T12:48:53;4.90;;;3.27;;
17363;SDS011;8799;43.594;13.526;2022-11-15T12:57:33;4.57;;;2.93;;
17363;SDS011;8799;43.594;13.526;2022-11-15T13:06:06;7.40;;;3.00;;
17363;SDS011;8799;43.594;13.526;2022-11-15T13:08:55;5.33;;;3.07;;
17363;SDS011;8799;43.594;13.526;2022-11-15T13:11:42;5.00;;;2.93;;
17363;SDS011;8799;43.594;13.526;2022-11-15T13:17:23;4.17;;;2.70;;
17363;SDS011;8799;43.594;13.526;2022-11-15T13:20:00;5.03;;;3.27;;
17363;SDS011;8799;43.594;13.526;2022-11-15T13:23:08;6.60;;;3.20;;
17363;SDS011;8799;43.594;13.526;2022-11-15T13:25:46;5.37;;;2.97;;
17363;SDS011;8799;43.594;13.526;2022-11-15T13:28:34;4.33;;;2.57;;
17363;SDS011;8799;43.594;13.526;2022-11-15T13:31:16;5.67;;;2.60;;
17363;SDS011;8799;43.594;13.526;2022-11-15T13:33:54;5.73;;;2.77;;
17363;SDS011;8799;43.594;13.526;2022-11-15T13:36:26;4.70;;;2.90;;
17363;SDS011;8799;43.594;13.526;2022-11-15T13:38:58;5.10;;;3.23;;
17363;SDS011;8799;43.594;13.526;2022-11-15T13:41:27;4.90;;;2.97;;
17363;SDS011;8799;43.594;13.526;2022-11-15T13:43:57;4.67;;;2.60;;
17363;SDS011;8799;43.594;13.526;2022-11-15T13:46:26;4.60;;;2.87;;
17363;SDS011;8799;43.594;13.526;2022-11-15T13:48:55;5.03;;;2.80;;
17363;SDS011;8799;43.594;13.526;2022-11-15T13:51:30;5.47;;;2.83;;
17363;SDS011;8799;43.594;13.526;2022-11-15T13:54:06;7.47;;;3.27;;
17363;SDS011;8799;43.594;13.526;2022-11-15T13:56:42;10.07;;;3.87;;
17363;SDS011;8799;43.594;13.526;2022-11-15T13:59:14;5.57;;;3.03;;
17363;SDS011;8799;43.594;13.526;2022-11-15T14:01:51;5.83;;;3.00;;
17363;SDS011;8799;43.594;13.526;2022-11-15T14:04:21;7.80;;;2.80;;
17363;SDS011;8799;43.594;13.526;2022-11-15T14:06:50;4.17;;;2.43;;
17363;SDS011;8799;43.594;13.526;2022-11-15T14:09:34;6.67;;;2.90;;
17363;SDS011;8799;43.594;13.526;2022-11-15T14:14:50;6.50;;;2.90;;
17363;SDS011;8799;43.594;13.526;2022-11-15T14:17:32;5.33;;;2.77;;
17363;SDS011;8799;43.594;13.526;2022-11-15T14:20:01;5.17;;;2.90;;
17363;SDS011;8799;43.594;13.526;2022-11-15T14:22:51;5.33;;;3.00;;
17363;SDS011;8799;43.594;13.526;2022-11-15T14:25:22;6.73;;;3.20;;
17363;SDS011;8799;43.594;13.526;2022-11-15T14:28:10;6.27;;;2.73;;
17363;SDS011;8799;43.594;13.526;2022-11-15T14:30:43;4.93;;;2.93;;
17363;SDS011;8799;43.594;13.526;2022-11-15T14:33:19;5.20;;;2.83;;
17363;SDS011;8799;43.594;13.526;2022-11-15T14:35:50;4.33;;;2.87;;
17363;SDS011;8799;43.594;13.526;2022-11-15T14:38:19;5.70;;;3.13;;
17363;SDS011;8799;43.594;13.526;2022-11-15T14:40:49;5.33;;;2.80;;
17363;SDS011;8799;43.594;13.526;2022-11-15T14:43:17;5.10;;;2.83;;
17363;SDS011;8799;43.594;13.526;2022-11-15T14:45:45;4.03;;;2.53;;
17363;SDS011;8799;43.594;13.526;2022-11-15T14:48:13;4.67;;;2.70;;
17363;SDS011;8799;43.594;13.526;2022-11-15T14:50:41;3.97;;;2.67;;
17363;SDS011;8799;43.594;13.526;2022-11-15T14:53:11;5.27;;;2.87;;
17363;SDS011;8799;43.594;13.526;2022-11-15T14:55:41;4.50;;;2.53;;
17363;SDS011;8799;43.594;13.526;2022-11-15T14:58:11;4.83;;;2.87;;
17363;SDS011;8799;43.594;13.526;2022-11-15T15:00:39;4.33;;;2.97;;
17363;SDS011;8799;43.594;13.526;2022-11-15T15:03:08;6.83;;;2.57;;
17363;SDS011;8799;43.594;13.526;2022-11-15T15:05:36;6.13;;;2.90;;
17363;SDS011;8799;43.594;13.526;2022-11-15T15:08:05;5.30;;;3.10;;
17363;SDS011;8799;43.594;13.526;2022-11-15T15:10:34;5.07;;;2.97;;
17363;SDS011;8799;43.594;13.526;2022-11-15T15:13:04;4.20;;;2.90;;
17363;SDS011;8799;43.594;13.526;2022-11-15T15:15:35;3.43;;;2.50;;
17363;SDS011;8799;43.594;13.526;2022-11-15T15:18:04;4.97;;;2.73;;
17363;SDS011;8799;43.594;13.526;2022-11-15T15:20:34;5.57;;;2.83;;
17363;SDS011;8799;43.594;13.526;2022-11-15T15:23:02;4.90;;;2.87;;
17363;SDS011;8799;43.594;13.526;2022-11-15T15:25:31;4.27;;;2.57;;
17363;SDS011;8799;43.594;13.526;2022-11-15T15:28:01;4.67;;;3.03;;
17363;SDS011;8799;43.594;13.526;2022-11-15T15:30:29;4.00;;;2.67;;
17363;SDS011;8799;43.594;13.526;2022-11-15T15:32:59;4.80;;;2.87;;
17363;SDS011;8799;43.594;13.526;2022-11-15T15:35:29;3.70;;;2.63;;
17363;SDS011;8799;43.594;13.526;2022-11-15T15:37:58;4.40;;;2.63;;
17363;SDS011;8799;43.594;13.526;2022-11-15T15:40:27;4.30;;;2.57;;
17363;SDS011;8799;43.594;13.526;2022-11-15T15:42:56;5.63;;;2.70;;
17363;SDS011;8799;43.594;13.526;2022-11-15T15:45:24;3.87;;;2.63;;
17363;SDS011;8799;43.594;13.526;2022-11-15T15:47:54;8.60;;;2.53;;